sensor_id;sensor_type;location;lat;lon;timestamp;pressure;altitude;pressure_sealevel;temperature;humidity
39891;BME280;25564;53.312;9.790;2022-11-23T00:00:21;99238.22;;;4.43;98.89
39891;BME280;25564;53.312;9.790;2022-11-23T00:02:53;99254.69;;;4.53;98.99
39891;BME280;25564;53.312;9.790;2022-11-23T00:05:27;99246.78;;;4.54;98.96
39891;BME280;25564;53.312;9.790;2022-11-23T00:08:00;99238.88;;;4.56;98.85
39891;BME280;25564;53.312;9.790;2022-11-23T00:10:32;99248.41;;;4.62;98.84
39891;BME280;25564;53.312;9.790;2022-11-23T00:13:04;99242.25;;;4.63;99.46
39891;BME280;25564;53.312;9.790;2022-11-23T00:15:39;99238.75;;;4.62;98.82
39891;BME280;25564;53.312;9.790;2022-11-23T00:18:11;99250.09;;;4.66;98.62
39891;BME280;25564;53.312;9.790;2022-11-23T00:20:43;99250.94;;;4.68;99.08
39891;BME280;25564;53.312;9.790;2022-11-23T00:23:14;99241.31;;;4.67;98.19
39891;BME280;25564;53.312;9.790;2022-11-23T00:25:45;99251.72;;;4.73;98.80
39891;BME280;25564;53.312;9.790;2022-11-23T00:28:17;99244.72;;;4.72;98.62
39891;BME280;25564;53.312;9.790;2022-11-23T00:30:48;99246.41;;;4.76;99.11
39891;BME280;25564;53.312;9.790;2022-11-23T00:33:20;99248.16;;;4.77;99.40
39891;BME280;25564;53.312;9.790;2022-11-23T00:36:03;99238.59;;;4.73;98.91
39891;BME280;25564;53.312;9.790;2022-11-23T00:38:36;99246.44;;;4.74;98.76
39891;BME280;25564;53.312;9.790;2022-11-23T00:41:10;99239.44;;;4.73;98.15
39891;BME280;25564;53.312;9.790;2022-11-23T00:43:42;99235.88;;;4.77;98.50
39891;BME280;25564;53.312;9.790;2022-11-23T00:46:16;99238.44;;;4.80;98.20
39891;BME280;25564;53.312;9.790;2022-11-23T00:48:49;99231.47;;;4.78;98.87
39891;BME280;25564;53.312;9.790;2022-11-23T00:51:23;99242.78;;;4.83;98.66
39891;BME280;25564;53.312;9.790;2022-11-23T00:53:55;99239.25;;;4.84;98.07
39891;BME280;25564;53.312;9.790;2022-11-23T00:56:28;99246.28;;;4.83;98.26
39891;BME280;25564;53.312;9.790;2022-11-23T00:59:01;99232.28;;;4.83;98.06
39891;BME280;25564;53.312;9.790;2022-11-23T01:01:34;99240.94;;;4.88;98.94
39891;BME280;25564;53.312;9.790;2022-11-23T01:04:07;99242.66;;;4.89;98.62
39891;BME280;25564;53.312;9.790;2022-11-23T01:06:39;99241.78;;;4.90;97.80
39891;BME280;25564;53.312;9.790;2022-11-23T01:09:13;99243.53;;;4.89;98.53
39891;BME280;25564;53.312;9.790;2022-11-23T01:11:44;99243.56;;;4.88;98.58
39891;BME280;25564;53.312;9.790;2022-11-23T01:14:16;99244.47;;;4.87;98.19
39891;BME280;25564;53.312;9.790;2022-11-23T01:16:47;99243.63;;;4.85;98.67
39891;BME280;25564;53.312;9.790;2022-11-23T01:19:19;99244.44;;;4.88;98.54
39891;BME280;25564;53.312;9.790;2022-11-23T01:21:51;99243.56;;;4.88;98.85
39891;BME280;25564;53.312;9.790;2022-11-23T01:24:23;99253.97;;;4.94;98.50
39891;BME280;25564;53.312;9.790;2022-11-23T01:26:54;99243.47;;;4.92;98.55
39891;BME280;25564;53.312;9.790;2022-11-23T01:29:26;99239.13;;;4.91;98.82
39891;BME280;25564;53.312;9.790;2022-11-23T01:31:57;99248.75;;;4.91;98.61
39891;BME280;25564;53.312;9.790;2022-11-23T01:34:28;99245.31;;;4.87;98.26
39891;BME280;25564;53.312;9.790;2022-11-23T01:36:59;99256.75;;;4.85;98.50
39891;BME280;25564;53.312;9.790;2022-11-23T01:39:31;99249.78;;;4.84;98.73
39891;BME280;25564;53.312;9.790;2022-11-23T01:42:03;99243.72;;;4.79;98.64
39891;BME280;25564;53.312;9.790;2022-11-23T01:44:40;99242.00;;;4.78;98.14
39891;BME280;25564;53.312;9.790;2022-11-23T01:47:11;99249.81;;;4.81;98.95
39891;BME280;25564;53.312;9.790;2022-11-23T01:49:45;99249.88;;;4.78;98.09
39891;BME280;25564;53.312;9.790;2022-11-23T01:52:22;99245.50;;;4.78;98.39
39891;BME280;25564;53.312;9.790;2022-11-23T01:54:56;99248.09;;;4.80;98.81
39891;BME280;25564;53.312;9.790;2022-11-23T01:57:38;99249.78;;;4.84;99.04
39891;BME280;25564;53.312;9.790;2022-11-23T02:00:12;99254.09;;;4.86;98.36
39891;BME280;25564;53.312;9.790;2022-11-23T02:02:54;99247.13;;;4.85;99.28
39891;BME280;25564;53.312;9.790;2022-11-23T02:05:31;99244.41;;;4.90;98.62
39891;BME280;25564;53.312;9.790;2022-11-23T02:08:04;99248.72;;;4.94;98.97
39891;BME280;25564;53.312;9.790;2022-11-23T02:10:36;99250.47;;;4.93;98.66
39891;BME280;25564;53.312;9.790;2022-11-23T02:13:10;99243.41;;;4.97;99.28
39891;BME280;25564;53.312;9.790;2022-11-23T02:15:42;99247.69;;;5.01;98.71
39891;BME280;25564;53.312;9.790;2022-11-23T02:18:16;99232.81;;;5.00;98.83
39891;BME280;25564;53.312;9.790;2022-11-23T02:20:50;99236.28;;;5.02;99.06
39891;BME280;25564;53.312;9.790;2022-11-23T02:23:37;99234.63;;;4.98;99.16
39891;BME280;25564;53.312;9.790;2022-11-23T02:26:16;99235.44;;;5.00;98.75
39891;BME280;25564;53.312;9.790;2022-11-23T02:28:56;99234.66;;;4.95;98.85
39891;BME280;25564;53.312;9.790;2022-11-23T02:31:29;99235.50;;;4.97;98.92
39891;BME280;25564;53.312;9.790;2022-11-23T02:34:00;99235.50;;;4.97;99.36
39891;BME280;25564;53.312;9.790;2022-11-23T02:36:43;99233.75;;;4.98;98.93
39891;BME280;25564;53.312;9.790;2022-11-23T02:39:35;99234.63;;;4.98;99.14
39891;BME280;25564;53.312;9.790;2022-11-23T02:42:07;99238.97;;;4.99;99.13
39891;BME280;25564;53.312;9.790;2022-11-23T02:44:57;99226.66;;;5.01;99.26
39891;BME280;25564;53.312;9.790;2022-11-23T02:47:29;99226.69;;;5.00;98.79
39891;BME280;25564;53.312;9.790;2022-11-23T02:50:01;99227.53;;;5.02;99.21
39891;BME280;25564;53.312;9.790;2022-11-23T02:52:32;99231.84;;;5.06;98.82
39891;BME280;25564;53.312;9.790;2022-11-23T02:55:03;99230.13;;;5.03;99.38
39891;BME280;25564;53.312;9.790;2022-11-23T02:57:35;99233.59;;;5.05;98.58
39891;BME280;25564;53.312;9.790;2022-11-23T03:00:07;99230.97;;;5.05;99.14
39891;BME280;25564;53.312;9.790;2022-11-23T03:02:38;99223.94;;;5.06;99.20
39891;BME280;25564;53.312;9.790;2022-11-23T03:05:09;99238.81;;;5.08;98.92
39891;BME280;25564;53.312;9.790;2022-11-23T03:07:41;99230.84;;;5.11;98.57
39891;BME280;25564;53.312;9.790;2022-11-23T03:10:13;99231.69;;;5.13;99.19
39891;BME280;25564;53.312;9.790;2022-11-23T03:12:44;99238.72;;;5.13;99.05
39891;BME280;25564;53.312;9.790;2022-11-23T03:15:15;99234.31;;;5.13;98.58
39891;BME280;25564;53.312;9.790;2022-11-23T03:17:47;99241.31;;;5.14;98.98
39891;BME280;25564;53.312;9.790;2022-11-23T03:20:19;99240.41;;;5.15;99.45
39891;BME280;25564;53.312;9.790;2022-11-23T03:22:50;99236.94;;;5.13;99.51
39891;BME280;25564;53.312;9.790;2022-11-23T03:25:22;99249.16;;;5.16;99.00
39891;BME280;25564;53.312;9.790;2022-11-23T03:27:53;99239.56;;;5.15;99.50
39891;BME280;25564;53.312;9.790;2022-11-23T03:30:24;99242.19;;;5.15;98.99
39891;BME280;25564;53.312;9.790;2022-11-23T03:32:56;99248.31;;;5.15;98.96
39891;BME280;25564;53.312;9.790;2022-11-23T03:35:27;99245.63;;;5.18;98.82
39891;BME280;25564;53.312;9.790;2022-11-23T03:37:59;99250.88;;;5.18;98.42
39891;BME280;25564;53.312;9.790;2022-11-23T03:40:30;99257.00;;;5.19;98.99
39891;BME280;25564;53.312;9.790;2022-11-23T03:43:02;99250.88;;;5.18;99.49
39891;BME280;25564;53.312;9.790;2022-11-23T03:45:33;99252.66;;;5.16;99.15
39891;BME280;25564;53.312;9.790;2022-11-23T03:48:05;99256.94;;;5.20;99.18
39891;BME280;25564;53.312;9.790;2022-11-23T03:50:36;99245.63;;;5.18;98.95
39891;BME280;25564;53.312;9.790;2022-11-23T03:53:07;99239.56;;;5.15;98.74
39891;BME280;25564;53.312;9.790;2022-11-23T03:55:39;99254.47;;;5.14;99.01
39891;BME280;25564;53.312;9.790;2022-11-23T03:58:10;99256.19;;;5.15;98.27
39891;BME280;25564;53.312;9.790;2022-11-23T04:00:42;99258.78;;;5.18;99.50
39891;BME280;25564;53.312;9.790;2022-11-23T04:03:13;99252.53;;;5.22;98.58
39891;BME280;25564;53.312;9.790;2022-11-23T04:05:44;99250.72;;;5.24;99.06
39891;BME280;25564;53.312;9.790;2022-11-23T04:08:16;99247.13;;;5.29;98.92
39891;BME280;25564;53.312;9.790;2022-11-23T04:10:47;99247.91;;;5.34;99.60
39891;BME280;25564;53.312;9.790;2022-11-23T04:13:18;99252.25;;;5.36;99.51
39891;BME280;25564;53.312;9.790;2022-11-23T04:15:50;99251.31;;;5.39;99.45
39891;BME280;25564;53.312;9.790;2022-11-23T04:18:21;99252.16;;;5.41;99.21
39891;BME280;25564;53.312;9.790;2022-11-23T04:20:52;99234.63;;;5.40;99.22
39891;BME280;25564;53.312;9.790;2022-11-23T04:23:24;99245.97;;;5.43;99.33
39891;BME280;25564;53.312;9.790;2022-11-23T04:25:55;99244.13;;;5.47;99.13
39891;BME280;25564;53.312;9.790;2022-11-23T04:28:26;99242.44;;;5.44;99.30
39891;BME280;25564;53.312;9.790;2022-11-23T04:30:57;99240.59;;;5.49;99.24
39891;BME280;25564;53.312;9.790;2022-11-23T04:33:29;99244.97;;;5.49;99.58
39891;BME280;25564;53.312;9.790;2022-11-23T04:36:01;99237.91;;;5.51;99.27
39891;BME280;25564;53.312;9.790;2022-11-23T04:38:33;99245.72;;;5.55;99.96
39891;BME280;25564;53.312;9.790;2022-11-23T04:41:04;99237.78;;;5.57;99.07
39891;BME280;25564;53.312;9.790;2022-11-23T04:43:36;99249.19;;;5.57;99.39
39891;BME280;25564;53.312;9.790;2022-11-23T04:46:08;99241.31;;;5.56;99.22
39891;BME280;25564;53.312;9.790;2022-11-23T04:48:40;99246.50;;;5.59;99.58
39891;BME280;25564;53.312;9.790;2022-11-23T04:51:12;99243.00;;;5.60;99.84
39891;BME280;25564;53.312;9.790;2022-11-23T04:53:43;99249.16;;;5.59;99.76
39891;BME280;25564;53.312;9.790;2022-11-23T04:56:15;99246.44;;;5.62;99.01
39891;BME280;25564;53.312;9.790;2022-11-23T04:58:46;99244.69;;;5.63;99.15
39891;BME280;25564;53.312;9.790;2022-11-23T05:01:17;99251.66;;;5.65;99.13
39891;BME280;25564;53.312;9.790;2022-11-23T05:03:49;99243.69;;;5.68;98.84
39891;BME280;25564;53.312;9.790;2022-11-23T05:06:20;99240.22;;;5.66;99.82
39891;BME280;25564;53.312;9.790;2022-11-23T05:08:51;99242.81;;;5.68;99.16
39891;BME280;25564;53.312;9.790;2022-11-23T05:11:23;99252.41;;;5.70;99.67
39891;BME280;25564;53.312;9.790;2022-11-23T05:13:54;99248.81;;;5.74;98.98
39891;BME280;25564;53.312;9.790;2022-11-23T05:16:25;99240.94;;;5.74;99.57
39891;BME280;25564;53.312;9.790;2022-11-23T05:18:57;99247.94;;;5.75;99.82
39891;BME280;25564;53.312;9.790;2022-11-23T05:21:28;99244.50;;;5.72;99.50
39891;BME280;25564;53.312;9.790;2022-11-23T05:23:59;99253.19;;;5.75;99.74
39891;BME280;25564;53.312;9.790;2022-11-23T05:26:31;99246.13;;;5.77;99.70
39891;BME280;25564;53.312;9.790;2022-11-23T05:29:02;99247.94;;;5.75;99.52
39891;BME280;25564;53.312;9.790;2022-11-23T05:31:33;99254.84;;;5.79;99.48
39891;BME280;25564;53.312;9.790;2022-11-23T05:34:04;99259.16;;;5.83;99.92
39891;BME280;25564;53.312;9.790;2022-11-23T05:36:36;99251.25;;;5.83;99.66
39891;BME280;25564;53.312;9.790;2022-11-23T05:39:12;99254.66;;;5.88;99.39
39891;BME280;25564;53.312;9.790;2022-11-23T05:41:43;99259.06;;;5.89;99.44
39891;BME280;25564;53.312;9.790;2022-11-23T05:44:14;99254.66;;;5.88;99.73
39891;BME280;25564;53.312;9.790;2022-11-23T05:46:46;99253.75;;;5.91;99.70
39891;BME280;25564;53.312;9.790;2022-11-23T05:49:17;99254.66;;;5.90;100.00
39891;BME280;25564;53.312;9.790;2022-11-23T05:51:48;99261.63;;;5.93;99.87
39891;BME280;25564;53.312;9.790;2022-11-23T05:54:20;99250.22;;;5.92;100.00
39891;BME280;25564;53.312;9.790;2022-11-23T05:56:51;99251.09;;;5.93;99.95
39891;BME280;25564;53.312;9.790;2022-11-23T05:59:22;99258.09;;;5.94;99.67
39891;BME280;25564;53.312;9.790;2022-11-23T06:01:54;99256.41;;;5.89;100.00
39891;BME280;25564;53.312;9.790;2022-11-23T06:04:25;99251.16;;;5.89;99.86
39891;BME280;25564;53.312;9.790;2022-11-23T06:06:56;99248.41;;;5.94;99.37
39891;BME280;25564;53.312;9.790;2022-11-23T06:09:31;99249.28;;;5.95;99.73
39891;BME280;25564;53.312;9.790;2022-11-23T06:12:03;99256.22;;;5.99;99.54
39891;BME280;25564;53.312;9.790;2022-11-23T06:14:34;99257.06;;;6.01;99.70
39891;BME280;25564;53.312;9.790;2022-11-23T06:17:05;99251.78;;;6.01;99.74
39891;BME280;25564;53.312;9.790;2022-11-23T06:19:36;99259.69;;;6.01;99.88
39891;BME280;25564;53.312;9.790;2022-11-23T06:22:08;99263.19;;;6.01;99.36
39891;BME280;25564;53.312;9.790;2022-11-23T06:24:40;99252.66;;;6.01;99.93
39891;BME280;25564;53.312;9.790;2022-11-23T06:27:11;99259.63;;;6.04;99.70
39891;BME280;25564;53.312;9.790;2022-11-23T06:29:48;99262.19;;;6.07;99.93
39891;BME280;25564;53.312;9.790;2022-11-23T06:32:20;99255.19;;;6.06;99.80
39891;BME280;25564;53.312;9.790;2022-11-23T06:34:51;99259.63;;;6.04;99.90
39891;BME280;25564;53.312;9.790;2022-11-23T06:37:25;99265.69;;;6.07;99.82
39891;BME280;25564;53.312;9.790;2022-11-23T06:39:57;99272.75;;;6.05;100.00
39891;BME280;25564;53.312;9.790;2022-11-23T06:42:28;99279.69;;;6.09;99.82
39891;BME280;25564;53.312;9.790;2022-11-23T06:45:09;99278.00;;;6.05;99.72
39891;BME280;25564;53.312;9.790;2022-11-23T06:47:40;99280.59;;;6.07;99.73
39891;BME280;25564;53.312;9.790;2022-11-23T06:50:12;99282.41;;;6.05;99.57
39891;BME280;25564;53.312;9.790;2022-11-23T06:52:44;99285.13;;;6.02;99.81
39891;BME280;25564;53.312;9.790;2022-11-23T06:55:16;99287.81;;;5.99;99.85
39891;BME280;25564;53.312;9.790;2022-11-23T06:57:47;99292.34;;;5.92;99.33
39891;BME280;25564;53.312;9.790;2022-11-23T07:00:18;99288.00;;;5.89;99.33
39891;BME280;25564;53.312;9.790;2022-11-23T07:02:51;99295.06;;;5.86;99.48
39891;BME280;25564;53.312;9.790;2022-11-23T07:05:23;99284.66;;;5.81;99.08
39891;BME280;25564;53.312;9.790;2022-11-23T07:07:55;99297.84;;;5.80;99.50
39891;BME280;25564;53.312;9.790;2022-11-23T07:10:27;99302.25;;;5.79;99.43
39891;BME280;25564;53.312;9.790;2022-11-23T07:13:05;99304.88;;;5.79;99.19
39891;BME280;25564;53.312;9.790;2022-11-23T07:15:37;99304.84;;;5.81;100.00
39891;BME280;25564;53.312;9.790;2022-11-23T07:18:10;99309.16;;;5.83;99.38
39891;BME280;25564;53.312;9.790;2022-11-23T07:20:42;99305.59;;;5.86;99.48
39891;BME280;25564;53.312;9.790;2022-11-23T07:23:13;99309.97;;;5.87;99.82
39891;BME280;25564;53.312;9.790;2022-11-23T07:25:44;99309.09;;;5.86;99.63
39891;BME280;25564;53.312;9.790;2022-11-23T07:28:16;99304.69;;;5.88;99.44
39891;BME280;25564;53.312;9.790;2022-11-23T07:30:49;99296.78;;;5.88;99.57
39891;BME280;25564;53.312;9.790;2022-11-23T07:33:21;99308.94;;;5.96;99.55
39891;BME280;25564;53.312;9.790;2022-11-23T07:35:52;99310.63;;;6.00;100.00
39891;BME280;25564;53.312;9.790;2022-11-23T07:38:24;99317.53;;;6.04;99.51
39891;BME280;25564;53.312;9.790;2022-11-23T07:40:55;99313.09;;;6.07;100.00
39891;BME280;25564;53.312;9.790;2022-11-23T07:43:29;99304.25;;;6.10;99.80
39891;BME280;25564;53.312;9.790;2022-11-23T07:46:00;99307.59;;;6.16;100.00
39891;BME280;25564;53.312;9.790;2022-11-23T07:48:32;99317.16;;;6.22;100.00
39891;BME280;25564;53.312;9.790;2022-11-23T07:51:07;99318.66;;;6.31;100.00
39891;BME280;25564;53.312;9.790;2022-11-23T07:53:38;99311.69;;;6.28;99.99
39891;BME280;25564;53.312;9.790;2022-11-23T07:56:09;99320.31;;;6.36;99.84
39891;BME280;25564;53.312;9.790;2022-11-23T07:58:41;99329.75;;;6.45;100.00
39891;BME280;25564;53.312;9.790;2022-11-23T08:01:16;99326.16;;;6.49;99.95
39891;BME280;25564;53.312;9.790;2022-11-23T08:03:48;99315.69;;;6.46;100.00
39891;BME280;25564;53.312;9.790;2022-11-23T08:06:20;99335.69;;;6.54;100.00
39891;BME280;25564;53.312;9.790;2022-11-23T08:08:51;99330.28;;;6.61;100.00
39891;BME280;25564;53.312;9.790;2022-11-23T08:11:22;99331.00;;;6.67;100.00
39891;BME280;25564;53.312;9.790;2022-11-23T08:13:53;99331.75;;;6.72;100.00
39891;BME280;25564;53.312;9.790;2022-11-23T08:16:25;99334.13;;;6.83;100.00
39891;BME280;25564;53.312;9.790;2022-11-23T08:18:56;99338.34;;;6.90;100.00
39891;BME280;25564;53.312;9.790;2022-11-23T08:21:27;99340.84;;;6.96;100.00
39891;BME280;25564;53.312;9.790;2022-11-23T08:23:59;99338.03;;;7.02;100.00
39891;BME280;25564;53.312;9.790;2022-11-23T08:26:30;99330.25;;;6.98;100.00
39891;BME280;25564;53.312;9.790;2022-11-23T08:29:01;99321.56;;;6.93;100.00
39891;BME280;25564;53.312;9.790;2022-11-23T08:31:33;99345.28;;;6.94;100.00
39891;BME280;25564;53.312;9.790;2022-11-23T08:34:04;99353.25;;;6.91;99.90
39891;BME280;25564;53.312;9.790;2022-11-23T08:36:36;99342.72;;;6.91;100.00
39891;BME280;25564;53.312;9.790;2022-11-23T08:39:07;99342.56;;;6.97;100.00
39891;BME280;25564;53.312;9.790;2022-11-23T08:41:41;99347.69;;;7.03;100.00
39891;BME280;25564;53.312;9.790;2022-11-23T08:44:12;99339.69;;;7.06;99.99
39891;BME280;25564;53.312;9.790;2022-11-23T08:46:43;99347.41;;;7.14;99.86
39891;BME280;25564;53.312;9.790;2022-11-23T08:49:15;99339.50;;;7.14;99.88
39891;BME280;25564;53.312;9.790;2022-11-23T08:51:46;99344.66;;;7.18;100.00
39891;BME280;25564;53.312;9.790;2022-11-23T08:54:20;99342.75;;;7.24;100.00
39891;BME280;25564;53.312;9.790;2022-11-23T08:56:54;99350.50;;;7.30;99.80
39891;BME280;25564;53.312;9.790;2022-11-23T08:59:25;99351.16;;;7.38;99.49
39891;BME280;25564;53.312;9.790;2022-11-23T09:01:56;99347.59;;;7.39;99.80
39891;BME280;25564;53.312;9.790;2022-11-23T09:04:28;99347.50;;;7.43;99.84
39891;BME280;25564;53.312;9.790;2022-11-23T09:07:02;99353.72;;;7.41;99.70
39891;BME280;25564;53.312;9.790;2022-11-23T09:09:33;99353.84;;;7.36;99.67
39891;BME280;25564;53.312;9.790;2022-11-23T09:12:05;99347.97;;;7.27;99.71
39891;BME280;25564;53.312;9.790;2022-11-23T09:14:36;99355.06;;;7.25;99.57
39891;BME280;25564;53.312;9.790;2022-11-23T09:17:07;99359.50;;;7.22;99.58
39891;BME280;25564;53.312;9.790;2022-11-23T09:19:39;99362.13;;;7.22;99.45
39891;BME280;25564;53.312;9.790;2022-11-23T09:22:10;99369.19;;;7.22;99.53
39891;BME280;25564;53.312;9.790;2022-11-23T09:24:41;99364.81;;;7.21;99.54
39891;BME280;25564;53.312;9.790;2022-11-23T09:27:13;99362.78;;;7.31;99.56
39891;BME280;25564;53.312;9.790;2022-11-23T09:29:44;99365.88;;;7.46;99.87
39891;BME280;25564;53.312;9.790;2022-11-23T09:32:16;99364.69;;;7.58;99.73
39891;BME280;25564;53.312;9.790;2022-11-23T09:34:47;99372.19;;;7.73;99.89
39891;BME280;25564;53.312;9.790;2022-11-23T09:37:19;99379.84;;;7.82;99.77
39891;BME280;25564;53.312;9.790;2022-11-23T09:39:50;99382.06;;;7.98;100.00
39891;BME280;25564;53.312;9.790;2022-11-23T09:45:21;99378.13;;;8.12;99.62
39891;BME280;25564;53.312;9.790;2022-11-23T09:50:44;99381.63;;;8.13;100.00
39891;BME280;25564;53.312;9.790;2022-11-23T09:53:23;99379.53;;;8.24;99.68
39891;BME280;25564;53.312;9.790;2022-11-23T09:55:56;99371.53;;;8.27;100.00
39891;BME280;25564;53.312;9.790;2022-11-23T09:58:33;99372.97;;;8.37;100.00
39891;BME280;25564;53.312;9.790;2022-11-23T10:01:11;99375.22;;;8.51;100.00
39891;BME280;25564;53.312;9.790;2022-11-23T10:03:43;99376.66;;;8.61;99.95
39891;BME280;25564;53.312;9.790;2022-11-23T10:06:30;99377.91;;;8.77;99.75
39891;BME280;25564;53.312;9.790;2022-11-23T10:09:37;99384.53;;;8.91;99.67
39891;BME280;25564;53.312;9.790;2022-11-23T10:12:53;99377.28;;;8.97;99.75
39891;BME280;25564;53.312;9.790;2022-11-23T10:15:36;99383.47;;;8.96;99.78
39891;BME280;25564;53.312;9.790;2022-11-23T10:18:34;99384.44;;;8.94;99.17
39891;BME280;25564;53.312;9.790;2022-11-23T10:21:20;99384.34;;;8.97;99.71
39891;BME280;25564;53.312;9.790;2022-11-23T10:23:55;99383.47;;;8.96;99.60
39891;BME280;25564;53.312;9.790;2022-11-23T10:26:33;99392.13;;;9.01;98.91
39891;BME280;25564;53.312;9.790;2022-11-23T10:29:15;99390.22;;;9.06;99.19
39891;BME280;25564;53.312;9.790;2022-11-23T10:31:48;99394.38;;;9.13;99.42
39891;BME280;25564;53.312;9.790;2022-11-23T10:34:47;99388.94;;;9.18;98.91
39891;BME280;25564;53.312;9.790;2022-11-23T10:37:21;99389.03;;;9.15;98.82
39891;BME280;25564;53.312;9.790;2022-11-23T10:39:52;99397.03;;;9.13;99.06
39891;BME280;25564;53.312;9.790;2022-11-23T10:42:31;99400.59;;;9.12;99.00
39891;BME280;25564;53.312;9.790;2022-11-23T10:45:04;99390.81;;;9.14;98.94
39891;BME280;25564;53.312;9.790;2022-11-23T10:47:39;99390.72;;;9.17;98.98
39891;BME280;25564;53.312;9.790;2022-11-23T10:53:17;99393.97;;;9.26;98.34
39891;BME280;25564;53.312;9.790;2022-11-23T10:55:53;99397.34;;;9.31;98.19
39891;BME280;25564;53.312;9.790;2022-11-23T10:58:32;99396.22;;;9.36;98.19
39891;BME280;25564;53.312;9.790;2022-11-23T11:01:18;99398.88;;;9.36;98.09
39891;BME280;25564;53.312;9.790;2022-11-23T11:03:51;99396.19;;;9.38;98.17
39891;BME280;25564;53.312;9.790;2022-11-23T11:06:25;99404.84;;;9.43;97.76
39891;BME280;25564;53.312;9.790;2022-11-23T11:09:00;99400.25;;;9.48;97.79
39891;BME280;25564;53.312;9.790;2022-11-23T11:11:37;99393.94;;;9.52;97.74
39891;BME280;25564;53.312;9.790;2022-11-23T11:14:18;99390.22;;;9.58;97.34
39891;BME280;25564;53.312;9.790;2022-11-23T11:16:55;99393.72;;;9.58;98.16
39891;BME280;25564;53.312;9.790;2022-11-23T11:19:33;99388.47;;;9.57;97.55
39891;BME280;25564;53.312;9.790;2022-11-23T11:22:33;99387.50;;;9.59;97.50
39891;BME280;25564;53.312;9.790;2022-11-23T11:25:06;99383.72;;;9.66;98.20
39891;BME280;25564;53.312;9.790;2022-11-23T11:27:50;99381.88;;;9.68;97.34
39891;BME280;25564;53.312;9.790;2022-11-23T11:30:23;99381.56;;;9.77;97.81
39891;BME280;25564;53.312;9.790;2022-11-23T11:33:04;99388.53;;;9.80;97.78
39891;BME280;25564;53.312;9.790;2022-11-23T11:35:42;99376.38;;;9.74;97.28
39891;BME280;25564;53.312;9.790;2022-11-23T11:38:35;99372.75;;;9.77;97.88
39891;BME280;25564;53.312;9.790;2022-11-23T11:41:09;99390.22;;;9.82;97.08
39891;BME280;25564;53.312;9.790;2022-11-23T11:43:48;99388.59;;;9.78;97.14
39891;BME280;25564;53.312;9.790;2022-11-23T11:46:27;99396.53;;;9.78;97.01
39891;BME280;25564;53.312;9.790;2022-11-23T11:49:04;99394.69;;;9.80;97.54
39891;BME280;25564;53.312;9.790;2022-11-23T11:51:45;99385.00;;;9.79;97.38
39891;BME280;25564;53.312;9.790;2022-11-23T11:57:12;99387.44;;;9.86;97.12
39891;BME280;25564;53.312;9.790;2022-11-23T11:59:49;99384.75;;;9.87;96.77
39891;BME280;25564;53.312;9.790;2022-11-23T12:02:29;99377.66;;;9.88;96.85
39891;BME280;25564;53.312;9.790;2022-11-23T12:05:22;99370.41;;;9.93;97.30
39891;BME280;25564;53.312;9.790;2022-11-23T12:08:12;99364.31;;;9.91;96.81
39891;BME280;25564;53.312;9.790;2022-11-23T12:10:52;99369.50;;;9.94;97.24
39891;BME280;25564;53.312;9.790;2022-11-23T12:13:36;99362.22;;;9.99;96.49
39891;BME280;25564;53.312;9.790;2022-11-23T12:21:58;99360.84;;;10.12;96.39
39891;BME280;25564;53.312;9.790;2022-11-23T12:25:04;99364.53;;;10.08;96.70
39891;BME280;25564;53.312;9.790;2022-11-23T12:27:50;99365.63;;;10.02;96.31
39891;BME280;25564;53.312;9.790;2022-11-23T12:30:33;99362.34;;;9.96;96.09
39891;BME280;25564;53.312;9.790;2022-11-23T12:33:21;99354.72;;;9.87;95.99
39891;BME280;25564;53.312;9.790;2022-11-23T12:39:31;99363.31;;;9.93;96.28
39891;BME280;25564;53.312;9.790;2022-11-23T12:42:23;99359.59;;;9.99;96.29
39891;BME280;25564;53.312;9.790;2022-11-23T12:50:46;99364.31;;;10.14;96.65
39891;BME280;25564;53.312;9.790;2022-11-23T12:53:45;99365.78;;;10.23;96.74
39891;BME280;25564;53.312;9.790;2022-11-23T12:56:40;99364.00;;;10.23;96.42
39891;BME280;25564;53.312;9.790;2022-11-23T12:59:16;99363.09;;;10.24;96.42
39891;BME280;25564;53.312;9.790;2022-11-23T13:01:55;99366.44;;;10.29;96.10
39891;BME280;25564;53.312;9.790;2022-11-23T13:04:41;99358.59;;;10.26;96.09
39891;BME280;25564;53.312;9.790;2022-11-23T13:13:33;99365.81;;;10.44;95.82
39891;BME280;25564;53.312;9.790;2022-11-23T13:16:28;99370.19;;;10.45;95.51
39891;BME280;25564;53.312;9.790;2022-11-23T13:21:53;99366.50;;;10.49;95.57
39891;BME280;25564;53.312;9.790;2022-11-23T13:24:33;99356.75;;;10.50;94.89
39891;BME280;25564;53.312;9.790;2022-11-23T13:40:32;99347.81;;;10.31;94.38
39891;BME280;25564;53.312;9.790;2022-11-23T13:43:14;99350.41;;;10.32;94.79
39891;BME280;25564;53.312;9.790;2022-11-23T13:49:02;99341.88;;;10.24;94.42
39891;BME280;25564;53.312;9.790;2022-11-23T13:51:34;99355.94;;;10.26;94.26
39891;BME280;25564;53.312;9.790;2022-11-23T13:54:20;99350.63;;;10.26;94.15
39891;BME280;25564;53.312;9.790;2022-11-23T13:56:58;99353.34;;;10.25;94.15
39891;BME280;25564;53.312;9.790;2022-11-23T13:59:32;99355.94;;;10.26;94.22
39891;BME280;25564;53.312;9.790;2022-11-23T14:04:44;99344.88;;;10.38;93.90
39891;BME280;25564;53.312;9.790;2022-11-23T14:07:38;99344.72;;;10.41;93.35
39891;BME280;25564;53.312;9.790;2022-11-23T14:10:20;99354.97;;;10.51;93.61
39891;BME280;25564;53.312;9.790;2022-11-23T14:13:16;99351.38;;;10.52;93.63
39891;BME280;25564;53.312;9.790;2022-11-23T14:15:59;99353.19;;;10.51;93.10
39891;BME280;25564;53.312;9.790;2022-11-23T14:18:48;99351.69;;;10.44;93.39
39891;BME280;25564;53.312;9.790;2022-11-23T14:21:38;99345.22;;;10.29;92.93
39891;BME280;25564;53.312;9.790;2022-11-23T14:27:29;99334.69;;;10.03;93.28
39891;BME280;25564;53.312;9.790;2022-11-23T14:33:23;99345.72;;;9.67;93.20
39891;BME280;25564;53.312;9.790;2022-11-23T14:39:15;99343.53;;;9.30;93.61
39891;BME280;25564;53.312;9.790;2022-11-23T14:41:57;99335.25;;;9.14;94.05
39891;BME280;25564;53.312;9.790;2022-11-23T14:44:29;99334.88;;;8.99;93.40
39891;BME280;25564;53.312;9.790;2022-11-23T14:47:09;99335.28;;;8.87;94.15
39891;BME280;25564;53.312;9.790;2022-11-23T14:49:49;99331.47;;;8.69;93.65
39891;BME280;25564;53.312;9.790;2022-11-23T14:52:23;99338.78;;;8.61;94.19
39891;BME280;25564;53.312;9.790;2022-11-23T14:54:57;99341.66;;;8.53;94.03